Time;durP1;ratioP1;P1;durP2;ratioP2;P2;SDS_P1;SDS_P2;PMS_P1;PMS_P2;Temp;Humidity;BMP_temperature;BMP_pressure;BME280_temperature;BME280_humidity;BME280_pressure;Samples;Min_cycle;Max_cycle;Signal;HPM_P1;HPM_P2
2023/01/13 00:01:54;;;;;;;;;;;10.40;91.40;;;;;;5018589;28;19912;-85
2023/01/13 00:04:19;;;;;;;;;;;10.40;91.50;;;;;;5002228;28;19952;-86
2023/01/13 00:06:44;;;;;;;;;;;10.40;91.70;;;;;;5007988;28;19984;-86
2023/01/13 00:09:10;;;;;;;;;;;10.40;91.90;;;;;;4994314;28;19929;-87
2023/01/13 00:11:35;;;;;;;;;;;10.30;92.00;;;;;;4993088;28;19910;-86
2023/01/13 00:14:01;;;;;;;;;;;10.30;91.90;;;;;;5013958;28;19917;-87
2023/01/13 00:16:26;;;;;;;;;;;10.30;92.00;;;;;;5018436;28;19920;-87
2023/01/13 00:18:52;;;;;;;;;;;10.30;92.30;;;;;;4995810;28;19925;-86
2023/01/13 00:21:24;;;;;;;;;;;10.40;92.30;;;;;;4991079;28;19924;-86
2023/01/13 00:23:51;;;;;;;;;;;10.40;92.00;;;;;;4993905;28;19964;-85
2023/01/13 00:26:21;;;;;;;;;;;10.30;92.00;;;;;;4999175;28;19929;-86
2023/01/13 00:28:47;;;;;;;;;;;10.30;91.50;;;;;;4998337;28;19918;-86
2023/01/13 00:31:13;;;;;;;;;;;10.30;91.40;;;;;;5000588;28;19921;-87
2023/01/13 00:33:39;;;;;;;;;;;10.20;91.00;;;;;;4998561;28;20017;-86
2023/01/13 00:36:06;;;;;;;;;;;10.20;90.80;;;;;;5009777;28;19961;-86
2023/01/13 00:38:32;;;;;;;;;;;10.20;90.70;;;;;;5000016;28;19914;-86
2023/01/13 00:40:58;;;;;;;;;;;10.20;90.60;;;;;;4988199;28;19917;-86
2023/01/13 00:43:24;;;;;;;;;;;10.20;90.30;;;;;;5000209;28;19913;-86
2023/01/13 00:45:50;;;;;;;;;;;10.10;90.30;;;;;;4994996;28;19918;-86
2023/01/13 00:48:17;;;;;;;;;;;10.10;89.80;;;;;;4995542;28;20379;-86
2023/01/13 00:50:44;;;;;;;;;;;10.10;89.30;;;;;;4999240;28;19921;-86
2023/01/13 00:53:09;;;;;;;;;;;10.20;89.00;;;;;;5012967;28;19940;-86
2023/01/13 00:55:35;;;;;;;;;;;10.10;88.60;;;;;;5006806;28;19914;-86
2023/01/13 00:58:02;;;;;;;;;;;10.10;88.50;;;;;;4994400;28;20447;-86
2023/01/13 01:00:31;;;;;;;;;;;10.10;88.60;;;;;;5009246;28;19955;-86
2023/01/13 01:02:57;;;;;;;;;;;10.20;88.40;;;;;;5022003;28;19920;-86
2023/01/13 01:05:22;;;;;;;;;;;10.20;88.30;;;;;;5005594;28;19914;-86
2023/01/13 01:07:48;;;;;;;;;;;10.20;88.10;;;;;;4996927;28;19921;-86
2023/01/13 01:10:13;;;;;;;;;;;10.10;88.20;;;;;;4993357;28;19940;-86
2023/01/13 01:12:38;;;;;;;;;;;10.10;88.20;;;;;;5000758;28;19945;-85
2023/01/13 01:15:06;;;;;;;;;;;10.10;87.80;;;;;;5010163;28;19952;-87
2023/01/13 01:17:32;;;;;;;;;;;10.10;87.60;;;;;;4995356;28;19916;-85
2023/01/13 01:19:57;;;;;;;;;;;10.10;87.60;;;;;;4997488;28;19913;-87
2023/01/13 01:22:22;;;;;;;;;;;10.10;87.50;;;;;;5002496;28;19949;-86
2023/01/13 01:24:48;;;;;;;;;;;10.10;87.20;;;;;;5011126;28;19922;-86
2023/01/13 01:27:13;;;;;;;;;;;10.10;86.70;;;;;;4993787;28;19991;-86
2023/01/13 01:29:39;;;;;;;;;;;10.00;86.70;;;;;;5015554;28;19977;-85
2023/01/13 01:32:04;;;;;;;;;;;10.00;87.20;;;;;;5007304;28;19965;-86
2023/01/13 01:34:30;;;;;;;;;;;10.00;86.80;;;;;;5023273;28;20331;-86
2023/01/13 01:36:55;;;;;;;;;;;10.00;87.10;;;;;;5020975;28;20354;-86
2023/01/13 01:39:21;;;;;;;;;;;10.00;86.80;;;;;;5008456;28;19913;-86
2023/01/13 01:44:40;;;;;;;;;;;9.90;86.80;;;;;;5022817;28;20343;-86
2023/01/13 01:47:05;;;;;;;;;;;10.00;86.70;;;;;;5012382;28;19914;-87
2023/01/13 01:49:32;;;;;;;;;;;10.00;86.30;;;;;;4989250;28;20299;-86
2023/01/13 01:52:00;;;;;;;;;;;10.00;86.40;;;;;;4987430;28;19920;-87
2023/01/13 01:54:37;;;;;;;;;;;10.00;86.10;;;;;;4995364;28;20008;-87
2023/01/13 01:57:03;;;;;;;;;;;10.00;86.00;;;;;;4995820;28;19944;-86
2023/01/13 01:59:30;;;;;;;;;;;10.00;85.50;;;;;;5006573;28;20024;-86
2023/01/13 02:01:56;;;;;;;;;;;9.90;85.60;;;;;;4992573;28;19920;-87
2023/01/13 02:04:24;;;;;;;;;;;9.90;85.40;;;;;;5019751;28;19913;-86
2023/01/13 02:06:50;;;;;;;;;;;9.90;85.60;;;;;;4993868;28;19920;-87
2023/01/13 02:09:16;;;;;;;;;;;9.90;86.10;;;;;;4990348;28;19924;-87
2023/01/13 02:14:27;;;;;;;;;;;9.80;85.50;;;;;;5006756;28;19920;-86
2023/01/13 02:17:11;;;;;;;;;;;9.80;85.80;;;;;;5000792;28;19917;-87
2023/01/13 02:19:52;;;;;;;;;;;9.80;85.80;;;;;;4989648;28;19924;-86
2023/01/13 02:22:23;;;;;;;;;;;9.70;85.40;;;;;;4998245;28;19913;-86
2023/01/13 02:24:55;;;;;;;;;;;9.60;85.50;;;;;;5003701;28;20477;-86
2023/01/13 02:27:42;;;;;;;;;;;9.70;85.50;;;;;;5022287;28;20295;-86
2023/01/13 02:33:18;;;;;;;;;;;9.70;85.50;;;;;;5019415;28;19917;-87
2023/01/13 02:35:48;;;;;;;;;;;9.60;85.70;;;;;;4989150;28;19981;-86
2023/01/13 02:38:15;;;;;;;;;;;9.60;85.60;;;;;;5004414;28;19913;-86
2023/01/13 02:40:58;;;;;;;;;;;9.70;85.30;;;;;;4990142;28;19913;-87
2023/01/13 02:46:22;;;;;;;;;;;9.60;85.90;;;;;;5018982;28;19920;-86
2023/01/13 02:48:49;;;;;;;;;;;9.60;85.20;;;;;;4991805;28;19925;-87
2023/01/13 02:51:16;;;;;;;;;;;9.60;85.30;;;;;;4990221;28;19921;-86
2023/01/13 02:53:44;;;;;;;;;;;9.60;84.70;;;;;;4996682;28;19917;-86
2023/01/13 02:56:12;;;;;;;;;;;9.50;85.00;;;;;;5029838;28;19924;-85
2023/01/13 02:58:38;;;;;;;;;;;9.50;85.60;;;;;;5022044;28;19928;-85
2023/01/13 03:01:03;;;;;;;;;;;9.50;84.30;;;;;;4984008;28;19918;-86
2023/01/13 03:03:29;;;;;;;;;;;9.50;84.70;;;;;;4995698;28;19913;-86
2023/01/13 03:06:02;;;;;;;;;;;9.50;84.40;;;;;;5005665;28;20447;-86
2023/01/13 03:08:32;;;;;;;;;;;9.50;84.50;;;;;;5003864;28;19930;-87
2023/01/13 03:10:57;;;;;;;;;;;9.40;84.80;;;;;;4995591;28;20308;-86
2023/01/13 03:13:43;;;;;;;;;;;9.30;84.60;;;;;;5002442;28;19920;-87
2023/01/13 03:16:27;;;;;;;;;;;9.30;84.40;;;;;;4993825;28;19960;-86
2023/01/13 03:19:12;;;;;;;;;;;9.30;83.00;;;;;;5004763;28;19941;-87
2023/01/13 03:21:56;;;;;;;;;;;9.30;82.30;;;;;;4983276;28;20399;-86
2023/01/13 03:24:21;;;;;;;;;;;9.10;82.10;;;;;;4993414;28;19921;-87
2023/01/13 03:26:50;;;;;;;;;;;9.10;82.10;;;;;;5009300;28;19929;-87
2023/01/13 03:29:48;;;;;;;;;;;9.10;81.80;;;;;;4989374;28;19917;-87
2023/01/13 03:32:28;;;;;;;;;;;9.00;80.60;;;;;;4943374;28;19920;-86
2023/01/13 03:34:56;;;;;;;;;;;9.10;80.80;;;;;;4986416;28;19925;-86
2023/01/13 03:37:25;;;;;;;;;;;9.00;80.20;;;;;;4993001;28;20020;-86
2023/01/13 03:39:58;;;;;;;;;;;8.90;80.40;;;;;;5007047;28;20371;-87
2023/01/13 03:42:24;;;;;;;;;;;8.90;80.20;;;;;;5005884;28;20008;-87
2023/01/13 03:45:00;;;;;;;;;;;8.80;80.40;;;;;;5017981;28;19917;-87
2023/01/13 03:47:25;;;;;;;;;;;8.80;80.50;;;;;;4999488;28;19921;-86
2023/01/13 03:49:53;;;;;;;;;;;8.60;80.70;;;;;;5002462;28;20383;-86
2023/01/13 03:52:22;;;;;;;;;;;8.60;80.30;;;;;;4986444;28;19968;-86
2023/01/13 03:54:50;;;;;;;;;;;8.60;79.90;;;;;;4993062;28;19913;-87
2023/01/13 03:57:17;;;;;;;;;;;8.60;80.10;;;;;;4999601;28;19922;-87
2023/01/13 03:59:44;;;;;;;;;;;8.60;80.10;;;;;;5012093;28;19940;-86
2023/01/13 04:02:12;;;;;;;;;;;8.50;80.50;;;;;;5017119;28;20341;-86
2023/01/13 04:04:38;;;;;;;;;;;8.40;80.60;;;;;;5024277;28;19909;-86
2023/01/13 04:07:06;;;;;;;;;;;8.50;81.00;;;;;;5025301;28;19920;-86
2023/01/13 04:09:49;;;;;;;;;;;8.40;80.80;;;;;;5003958;28;20378;-86
2023/01/13 04:12:19;;;;;;;;;;;8.40;81.00;;;;;;4991693;28;20463;-86
2023/01/13 04:14:45;;;;;;;;;;;8.50;81.10;;;;;;4996008;28;20028;-87
2023/01/13 04:17:11;;;;;;;;;;;8.40;81.10;;;;;;4989217;28;19910;-87
2023/01/13 04:19:36;;;;;;;;;;;8.30;81.10;;;;;;4987355;28;19918;-86
2023/01/13 04:22:01;;;;;;;;;;;8.40;80.80;;;;;;5032143;28;19920;-86
2023/01/13 04:24:27;;;;;;;;;;;8.40;80.90;;;;;;5028834;28;19929;-86
2023/01/13 04:26:52;;;;;;;;;;;8.40;81.40;;;;;;5017677;28;19918;-86
2023/01/13 04:29:18;;;;;;;;;;;8.30;81.30;;;;;;5017151;28;20024;-86
2023/01/13 04:31:43;;;;;;;;;;;8.30;81.30;;;;;;5014183;28;19914;-86
2023/01/13 04:34:09;;;;;;;;;;;8.30;81.20;;;;;;4995233;28;19913;-86
2023/01/13 04:36:34;;;;;;;;;;;8.30;81.30;;;;;;5000631;28;19913;-86
2023/01/13 04:39:00;;;;;;;;;;;8.30;81.30;;;;;;4996967;28;19917;-86
2023/01/13 04:41:26;;;;;;;;;;;8.30;81.10;;;;;;5024561;28;19925;-86
2023/01/13 04:43:51;;;;;;;;;;;8.30;81.20;;;;;;4991911;28;19917;-87
2023/01/13 04:46:17;;;;;;;;;;;8.40;81.10;;;;;;4991611;28;20008;-87
2023/01/13 04:48:42;;;;;;;;;;;8.40;80.70;;;;;;5008634;28;19925;-87
2023/01/13 04:51:07;;;;;;;;;;;8.40;81.00;;;;;;4994880;28;19944;-86
2023/01/13 04:53:33;;;;;;;;;;;8.50;81.20;;;;;;5002834;28;19918;-86
2023/01/13 04:55:58;;;;;;;;;;;8.50;81.30;;;;;;4994981;28;19945;-86
2023/01/13 04:58:24;;;;;;;;;;;8.50;80.70;;;;;;4989689;28;19920;-86
2023/01/13 05:00:49;;;;;;;;;;;8.50;81.00;;;;;;5011287;28;19921;-85
2023/01/13 05:03:15;;;;;;;;;;;8.60;80.60;;;;;;4993946;28;19920;-86
2023/01/13 05:05:40;;;;;;;;;;;8.50;80.70;;;;;;4986812;28;19961;-86
2023/01/13 05:08:07;;;;;;;;;;;8.60;80.70;;;;;;5008952;28;19921;-86
2023/01/13 05:10:33;;;;;;;;;;;8.60;80.70;;;;;;4991763;28;19914;-86
2023/01/13 05:16:59;;;;;;;;;;;8.60;80.60;;;;;;5013163;28;20394;-86
2023/01/13 05:18:46;;;;;;;;;;;8.60;80.90;;;;;;5010011;28;19929;-87
2023/01/13 05:25:20;;;;;;;;;;;8.60;81.10;;;;;;4994327;28;20295;-86
2023/01/13 05:26:41;;;;;;;;;;;8.70;80.80;;;;;;5010711;28;19924;-86
2023/01/13 05:29:06;;;;;;;;;;;8.70;81.80;;;;;;5018355;28;19917;-86
2023/01/13 05:31:32;;;;;;;;;;;8.60;81.70;;;;;;5011609;28;20000;-86
2023/01/13 05:33:57;;;;;;;;;;;8.60;82.10;;;;;;5010916;28;19917;-86
2023/01/13 05:36:23;;;;;;;;;;;8.60;82.00;;;;;;4993327;28;19913;-85
2023/01/13 05:38:50;;;;;;;;;;;8.50;81.90;;;;;;4988893;28;19914;-85
2023/01/13 05:44:00;;;;;;;;;;;8.50;82.20;;;;;;5011968;28;20000;-86
2023/01/13 05:46:25;;;;;;;;;;;8.50;81.60;;;;;;4995438;28;19960;-86
2023/01/13 05:48:50;;;;;;;;;;;8.50;82.20;;;;;;4995551;28;19922;-85
2023/01/13 05:51:24;;;;;;;;;;;8.50;82.00;;;;;;5024298;23;19932;-87
2023/01/13 05:53:55;;;;;;;;;;;8.50;81.90;;;;;;5015648;28;19921;-88
2023/01/13 05:56:21;;;;;;;;;;;8.50;81.40;;;;;;5000980;28;19917;-88
2023/01/13 05:58:46;;;;;;;;;;;8.40;81.30;;;;;;5017488;28;19959;-87
2023/01/13 06:01:14;;;;;;;;;;;8.40;81.10;;;;;;4995735;28;19921;-89
2023/01/13 06:03:40;;;;;;;;;;;8.40;81.00;;;;;;4999628;28;19960;-87
2023/01/13 06:06:07;;;;;;;;;;;8.30;81.30;;;;;;5016826;28;19914;-86
2023/01/13 06:08:36;;;;;;;;;;;8.40;81.10;;;;;;4981255;28;19932;-88
2023/01/13 06:11:07;;;;;;;;;;;8.40;80.80;;;;;;4995843;28;19980;-90
2023/01/13 06:13:38;;;;;;;;;;;8.40;80.50;;;;;;5015551;28;19967;-88
2023/01/13 06:16:04;;;;;;;;;;;8.50;81.00;;;;;;4993916;28;19925;-87
2023/01/13 06:18:29;;;;;;;;;;;8.50;81.10;;;;;;5009638;28;19913;-88
2023/01/13 06:20:55;;;;;;;;;;;8.50;81.10;;;;;;4995511;28;20001;-89
2023/01/13 06:23:24;;;;;;;;;;;8.50;81.20;;;;;;5005299;28;19947;-89
2023/01/13 06:26:07;;;;;;;;;;;8.50;81.50;;;;;;4999147;28;19917;-90
2023/01/13 06:28:51;;;;;;;;;;;8.50;81.30;;;;;;4991809;28;19925;-87
2023/01/13 06:35:07;;;;;;;;;;;;;;;;;;;;;
2023/01/13 06:37:56;;;;;;;;;;;8.60;81.00;;;;;;5011981;28;19913;-88
2023/01/13 06:40:22;;;;;;;;;;;8.50;80.90;;;;;;4983880;28;19917;-88
2023/01/13 06:45:32;;;;;;;;;;;8.50;80.90;;;;;;5012579;28;19920;-88
2023/01/13 06:48:00;;;;;;;;;;;8.40;80.50;;;;;;5001844;28;19921;-88
2023/01/13 06:50:33;;;;;;;;;;;8.40;81.00;;;;;;4998740;28;19924;-88
2023/01/13 06:52:59;;;;;;;;;;;8.40;80.80;;;;;;4991761;28;19944;-86
2023/01/13 06:55:24;;;;;;;;;;;8.40;80.70;;;;;;4989124;28;20338;-86
2023/01/13 06:57:51;;;;;;;;;;;8.30;81.00;;;;;;5004996;28;19932;-86
2023/01/13 07:00:16;;;;;;;;;;;8.30;80.60;;;;;;5010609;28;19912;-88
2023/01/13 07:02:42;;;;;;;;;;;8.30;80.40;;;;;;5001441;28;19941;-86
2023/01/13 07:05:07;;;;;;;;;;;8.30;80.60;;;;;;4991811;28;19920;-88
2023/01/13 07:07:35;;;;;;;;;;;8.30;80.50;;;;;;4991622;28;19914;-88
2023/01/13 07:10:02;;;;;;;;;;;8.20;79.80;;;;;;4986211;28;19957;-85
2023/01/13 07:15:16;;;;;;;;;;;8.20;79.90;;;;;;5013450;28;19909;-88
2023/01/13 07:15:19;;;;;;;;;;;8.20;80.30;;;;;;5023355;28;19917;-89
2023/01/13 07:17:57;;;;;;;;;;;8.10;80.40;;;;;;4993471;28;19917;-90
2023/01/13 07:20:23;;;;;;;;;;;8.10;80.50;;;;;;4994709;28;19991;-89
2023/01/13 07:23:15;;;;;;;;;;;8.10;80.20;;;;;;4996593;28;19925;-89
2023/01/13 07:25:59;;;;;;;;;;;8.10;80.40;;;;;;5008999;28;19918;-85
2023/01/13 07:28:26;;;;;;;;;;;8.10;79.80;;;;;;5017011;28;20310;-85
2023/01/13 07:30:52;;;;;;;;;;;8.10;80.10;;;;;;5017957;28;19928;-86
2023/01/13 07:33:17;;;;;;;;;;;8.00;80.30;;;;;;5019050;28;19953;-87
2023/01/13 07:35:46;;;;;;;;;;;8.00;80.20;;;;;;5010576;28;20371;-86
2023/01/13 07:38:12;;;;;;;;;;;8.10;80.40;;;;;;5008143;28;20005;-84
2023/01/13 07:40:38;;;;;;;;;;;8.10;80.40;;;;;;5013414;28;20334;-86
2023/01/13 07:45:48;;;;;;;;;;;8.00;80.80;;;;;;5007013;28;19940;-89
2023/01/13 07:48:19;;;;;;;;;;;8.00;80.70;;;;;;4990905;28;19918;-88
2023/01/13 07:50:51;;;;;;;;;;;8.00;81.00;;;;;;4987953;28;19932;-87
2023/01/13 07:53:16;;;;;;;;;;;8.10;81.10;;;;;;5015267;28;20124;-87
2023/01/13 07:55:42;;;;;;;;;;;8.00;81.10;;;;;;4995238;28;20008;-86
2023/01/13 07:58:08;;;;;;;;;;;8.10;80.80;;;;;;4994575;28;19913;-85
2023/01/13 08:00:34;;;;;;;;;;;8.10;80.70;;;;;;5023958;28;19913;-85
2023/01/13 08:02:59;;;;;;;;;;;8.00;80.90;;;;;;4986076;28;19985;-85
2023/01/13 08:05:25;;;;;;;;;;;8.00;80.60;;;;;;5011982;28;20455;-85
2023/01/13 08:07:51;;;;;;;;;;;8.10;81.00;;;;;;5013043;28;19960;-85
2023/01/13 08:10:16;;;;;;;;;;;8.10;80.70;;;;;;4999074;28;19925;-85
2023/01/13 08:15:26;;;;;;;;;;;8.00;80.60;;;;;;5006659;28;19979;-87
2023/01/13 08:17:54;;;;;;;;;;;8.00;80.40;;;;;;4991077;28;19917;-90
2023/01/13 08:20:20;;;;;;;;;;;8.10;79.70;;;;;;5011529;28;19913;-88
2023/01/13 08:22:45;;;;;;;;;;;8.10;79.90;;;;;;5031983;28;19981;-87
2023/01/13 08:25:11;;;;;;;;;;;8.10;79.60;;;;;;5031796;28;19924;-87
2023/01/13 08:27:37;;;;;;;;;;;8.20;79.50;;;;;;5014145;28;19951;-87
2023/01/13 08:30:03;;;;;;;;;;;8.20;79.40;;;;;;5006400;28;20382;-88
2023/01/13 08:32:30;;;;;;;;;;;8.30;78.90;;;;;;5016977;28;19929;-87
2023/01/13 08:34:56;;;;;;;;;;;8.40;78.70;;;;;;5005213;28;19925;-89
2023/01/13 08:37:21;;;;;;;;;;;8.40;78.60;;;;;;4997781;28;19921;-86
2023/01/13 08:39:47;;;;;;;;;;;8.40;78.40;;;;;;5000548;28;19913;-89
2023/01/13 08:42:51;;;;;;;;;;;8.50;78.10;;;;;;5012990;28;19914;-90
2023/01/13 08:45:17;;;;;;;;;;;8.50;77.90;;;;;;4997792;28;19918;-87
2023/01/13 08:47:42;;;;;;;;;;;8.50;77.40;;;;;;5015200;28;20280;-85
2023/01/13 08:50:08;;;;;;;;;;;8.50;77.80;;;;;;5011904;28;20343;-87
2023/01/13 08:52:34;;;;;;;;;;;8.50;77.70;;;;;;5002691;28;19917;-87
2023/01/13 08:54:59;;;;;;;;;;;8.50;77.30;;;;;;4996841;28;19917;-85
2023/01/13 08:57:25;;;;;;;;;;;8.50;77.70;;;;;;5011123;28;19933;-87
2023/01/13 08:59:52;;;;;;;;;;;8.50;77.60;;;;;;5021624;28;19920;-87
2023/01/13 09:02:20;;;;;;;;;;;8.60;77.40;;;;;;4993131;28;19921;-85
2023/01/13 09:04:46;;;;;;;;;;;8.60;77.30;;;;;;5008241;28;19918;-87
2023/01/13 09:07:11;;;;;;;;;;;8.60;77.30;;;;;;5003752;28;20391;-84
2023/01/13 09:09:37;;;;;;;;;;;8.60;77.20;;;;;;5006427;28;19917;-84
2023/01/13 09:14:47;;;;;;;;;;;8.60;76.90;;;;;;5006274;28;20363;-86
2023/01/13 09:17:13;;;;;;;;;;;8.70;77.20;;;;;;5012381;28;19914;-85
2023/01/13 09:19:39;;;;;;;;;;;8.60;77.40;;;;;;4991152;28;19922;-86
2023/01/13 09:22:04;;;;;;;;;;;8.60;77.50;;;;;;5001450;28;19914;-88
2023/01/13 09:24:33;;;;;;;;;;;8.60;77.30;;;;;;5011560;28;19913;-87
2023/01/13 09:26:58;;;;;;;;;;;8.60;77.70;;;;;;5019160;28;19918;-87
2023/01/13 09:29:24;;;;;;;;;;;8.60;77.40;;;;;;5011782;28;19917;-85
2023/01/13 09:31:49;;;;;;;;;;;8.60;77.60;;;;;;5004480;28;19921;-86
2023/01/13 09:37:01;;;;;;;;;;;8.70;76.90;;;;;;5007354;28;20405;-85
2023/01/13 09:39:26;;;;;;;;;;;8.70;77.10;;;;;;4987964;28;19921;-87
2023/01/13 09:44:54;;;;;;;;;;;8.80;76.30;;;;;;5017888;28;19945;-86
2023/01/13 09:50:43;;;;;;;;;;;8.90;76.60;;;;;;5020229;22;20634;-83
2023/01/13 09:53:12;;;;;;;;;;;9.00;76.40;;;;;;4989423;28;19920;-83
2023/01/13 09:55:37;;;;;;;;;;;9.10;76.40;;;;;;5002993;28;20054;-85
2023/01/13 09:58:11;;;;;;;;;;;9.10;76.60;;;;;;4997453;28;19921;-86
2023/01/13 10:00:46;;;;;;;;;;;9.10;76.00;;;;;;4991872;28;19961;-84
2023/01/13 10:03:11;;;;;;;;;;;9.00;75.60;;;;;;4993290;28;19914;-85
2023/01/13 10:05:38;;;;;;;;;;;8.90;76.10;;;;;;4988530;28;20381;-85
2023/01/13 10:08:09;;;;;;;;;;;9.00;76.30;;;;;;5003655;28;19921;-85
2023/01/13 10:10:41;;;;;;;;;;;9.10;76.10;;;;;;4985280;28;19933;-83
2023/01/13 10:13:13;;;;;;;;;;;9.10;76.20;;;;;;4988833;28;19914;-84
2023/01/13 10:15:41;;;;;;;;;;;9.10;76.00;;;;;;4998778;28;19914;-83
2023/01/13 10:18:20;;;;;;;;;;;9.20;75.20;;;;;;5008355;28;19949;-83
2023/01/13 10:21:02;;;;;;;;;;;9.10;75.30;;;;;;4988386;28;19940;-84
2023/01/13 10:23:34;;;;;;;;;;;9.10;75.50;;;;;;4991644;28;19921;-83
2023/01/13 10:26:22;;;;;;;;;;;9.10;75.50;;;;;;4992546;28;20465;-84
2023/01/13 10:28:54;;;;;;;;;;;9.10;76.00;;;;;;4990291;28;19917;-84
2023/01/13 10:31:20;;;;;;;;;;;9.10;75.20;;;;;;4989501;28;20397;-83
2023/01/13 10:33:46;;;;;;;;;;;9.10;75.20;;;;;;4989126;28;19925;-83
2023/01/13 10:36:16;;;;;;;;;;;9.10;75.80;;;;;;4989489;28;19918;-83
2023/01/13 10:38:41;;;;;;;;;;;9.10;75.30;;;;;;4992288;28;19914;-85
2023/01/13 10:41:17;;;;;;;;;;;9.10;75.60;;;;;;4989520;28;19921;-84
2023/01/13 10:43:43;;;;;;;;;;;9.00;75.30;;;;;;4986108;28;19946;-82
2023/01/13 10:46:10;;;;;;;;;;;9.10;75.10;;;;;;4990949;28;19914;-83
2023/01/13 10:48:40;;;;;;;;;;;9.10;75.00;;;;;;4989913;28;19922;-85
2023/01/13 10:51:18;;;;;;;;;;;9.10;74.90;;;;;;4988820;28;19917;-83
2023/01/13 10:53:45;;;;;;;;;;;9.10;74.70;;;;;;4992936;28;19937;-83
2023/01/13 10:56:14;;;;;;;;;;;9.10;74.20;;;;;;4989849;28;20194;-84
2023/01/13 10:58:40;;;;;;;;;;;9.10;74.70;;;;;;4994514;28;19914;-83
2023/01/13 11:01:06;;;;;;;;;;;9.20;74.20;;;;;;4990389;28;19920;-83
2023/01/13 11:03:40;;;;;;;;;;;9.20;73.80;;;;;;4995190;28;19945;-85
2023/01/13 11:06:06;;;;;;;;;;;9.40;73.60;;;;;;4991560;28;19913;-83
2023/01/13 11:08:43;;;;;;;;;;;9.50;73.20;;;;;;4994500;28;20056;-84
2023/01/13 11:11:24;;;;;;;;;;;9.60;73.40;;;;;;5010910;28;19917;-82
2023/01/13 11:16:38;;;;;;;;;;;9.70;72.30;;;;;;4989465;28;19976;-82
2023/01/13 11:19:11;;;;;;;;;;;9.80;71.70;;;;;;4992848;28;19914;-83
2023/01/13 11:21:38;;;;;;;;;;;9.80;72.30;;;;;;5013574;28;19914;-83
2023/01/13 11:24:09;;;;;;;;;;;9.70;72.10;;;;;;4994782;28;19913;-84
2023/01/13 11:26:43;;;;;;;;;;;9.70;72.70;;;;;;4992290;28;20163;-84
2023/01/13 11:29:13;;;;;;;;;;;9.70;71.50;;;;;;4994937;28;19917;-84
2023/01/13 11:31:41;;;;;;;;;;;9.60;71.80;;;;;;4993642;28;19930;-84
2023/01/13 11:34:46;;;;;;;;;;;9.60;72.30;;;;;;4993572;28;19922;-83
2023/01/13 11:37:16;;;;;;;;;;;9.60;72.50;;;;;;4976618;28;19914;-84
2023/01/13 11:39:47;;;;;;;;;;;9.60;72.40;;;;;;4988802;28;19917;-81
2023/01/13 11:42:24;;;;;;;;;;;9.60;72.20;;;;;;4991323;28;19920;-82
2023/01/13 11:44:55;;;;;;;;;;;9.50;73.40;;;;;;4994387;28;20355;-81
2023/01/13 11:47:22;;;;;;;;;;;9.50;73.80;;;;;;5009853;28;19914;-84
2023/01/13 11:49:48;;;;;;;;;;;9.10;76.90;;;;;;4993353;28;20128;-82
2023/01/13 11:52:28;;;;;;;;;;;9.00;79.30;;;;;;5018088;23;19973;-80
2023/01/13 11:55:00;;;;;;;;;;;8.90;80.30;;;;;;5016980;28;19913;-80
2023/01/13 11:57:49;;;;;;;;;;;8.80;81.90;;;;;;4997858;28;19936;-79
2023/01/13 12:00:22;;;;;;;;;;;8.70;82.40;;;;;;5019133;28;19950;-79
2023/01/13 12:02:55;;;;;;;;;;;8.70;83.10;;;;;;5024042;28;19920;-80
2023/01/13 12:05:24;;;;;;;;;;;8.70;82.70;;;;;;5000826;28;19955;-80
2023/01/13 12:08:09;;;;;;;;;;;8.70;83.10;;;;;;5007680;28;20016;-79
2023/01/13 12:10:54;;;;;;;;;;;8.80;83.20;;;;;;5015343;28;20410;-80
2023/01/13 12:13:28;;;;;;;;;;;8.80;83.40;;;;;;4995986;28;19913;-79
2023/01/13 12:16:06;;;;;;;;;;;8.80;83.40;;;;;;5015388;28;20380;-79
2023/01/13 12:18:58;;;;;;;;;;;8.90;83.50;;;;;;5005820;28;19944;-78
2023/01/13 12:21:25;;;;;;;;;;;8.80;81.70;;;;;;5019770;28;20004;-79
2023/01/13 12:23:50;;;;;;;;;;;8.80;82.10;;;;;;5019109;28;19917;-81
2023/01/13 12:26:16;;;;;;;;;;;8.80;81.80;;;;;;4998052;28;19918;-80
2023/01/13 12:28:44;;;;;;;;;;;8.80;81.90;;;;;;5008642;28;19980;-81
2023/01/13 12:31:11;;;;;;;;;;;8.80;81.80;;;;;;4998483;28;19920;-80
2023/01/13 12:33:43;;;;;;;;;;;8.80;82.30;;;;;;5014333;28;19917;-80
2023/01/13 12:36:21;;;;;;;;;;;8.70;82.50;;;;;;5005957;28;19919;-80
2023/01/13 12:38:47;;;;;;;;;;;8.60;82.90;;;;;;5015748;28;19914;-80
2023/01/13 12:44:15;;;;;;;;;;;8.50;83.70;;;;;;4997596;28;19917;-80
2023/01/13 12:44:26;;;;;;;;;;;8.40;84.70;;;;;;5018161;28;19964;-80
2023/01/13 12:46:54;;;;;;;;;;;8.40;85.80;;;;;;5031827;28;20004;-79
2023/01/13 12:49:27;;;;;;;;;;;8.30;86.10;;;;;;5015715;28;19936;-81
2023/01/13 12:51:53;;;;;;;;;;;8.30;85.90;;;;;;4998594;28;20287;-81
2023/01/13 12:54:31;;;;;;;;;;;8.30;85.80;;;;;;5000014;28;19921;-82
2023/01/13 12:56:57;;;;;;;;;;;8.30;86.10;;;;;;5016603;28;19956;-82
2023/01/13 12:59:22;;;;;;;;;;;8.30;85.90;;;;;;5014575;28;19913;-82
2023/01/13 13:01:49;;;;;;;;;;;8.30;85.80;;;;;;5016673;28;19939;-82
2023/01/13 13:04:19;;;;;;;;;;;8.30;85.70;;;;;;4995524;28;19920;-82
2023/01/13 13:06:49;;;;;;;;;;;8.30;85.20;;;;;;5019814;28;19914;-81
2023/01/13 13:09:22;;;;;;;;;;;8.30;85.30;;;;;;5015201;28;19922;-82
2023/01/13 13:14:40;;;;;;;;;;;8.30;84.10;;;;;;5013053;28;19913;-81
2023/01/13 13:17:18;;;;;;;;;;;8.30;83.80;;;;;;5001210;28;20363;-83
2023/01/13 13:19:44;;;;;;;;;;;8.30;84.70;;;;;;5004971;28;19921;-78
2023/01/13 13:22:13;;;;;;;;;;;8.30;83.70;;;;;;4993799;28;19905;-80
2023/01/13 13:24:39;;;;;;;;;;;8.40;84.00;;;;;;5010453;28;20298;-82
2023/01/13 13:27:18;;;;;;;;;;;8.40;84.40;;;;;;4997244;28;19914;-83
2023/01/13 13:29:48;;;;;;;;;;;8.50;83.60;;;;;;4997639;28;19930;-84
2023/01/13 13:32:26;;;;;;;;;;;8.50;82.70;;;;;;4993293;28;20397;-84
2023/01/13 13:35:04;;;;;;;;;;;8.50;83.50;;;;;;5012091;28;19921;-82
2023/01/13 13:46:45;;;;;;;;;;;8.50;83.00;;;;;;5003677;28;20383;-84
2023/01/13 13:48:49;;;;;;;;;;;8.40;83.00;;;;;;5009462;28;20399;-81
2023/01/13 13:51:23;;;;;;;;;;;8.40;82.80;;;;;;4993256;28;20359;-81
2023/01/13 13:53:49;;;;;;;;;;;8.40;81.70;;;;;;4991932;28;19986;-80
2023/01/13 13:56:16;;;;;;;;;;;8.50;82.30;;;;;;5010696;28;19937;-82
2023/01/13 13:58:42;;;;;;;;;;;8.60;81.80;;;;;;5021149;28;19914;-83
2023/01/13 14:01:20;;;;;;;;;;;8.60;82.20;;;;;;5013883;28;19977;-82
2023/01/13 14:04:01;;;;;;;;;;;8.60;81.90;;;;;;5018871;28;20334;-80
2023/01/13 14:06:28;;;;;;;;;;;8.60;82.20;;;;;;5017814;28;19964;-81
2023/01/13 14:08:53;;;;;;;;;;;8.60;82.00;;;;;;5013601;28;19976;-79
2023/01/13 14:11:29;;;;;;;;;;;8.60;82.50;;;;;;4995079;28;19913;-79
2023/01/13 14:14:05;;;;;;;;;;;8.70;82.50;;;;;;5002344;28;19925;-83
2023/01/13 14:16:36;;;;;;;;;;;8.70;81.60;;;;;;5018248;28;19925;-85
2023/01/13 14:19:04;;;;;;;;;;;8.80;81.50;;;;;;5003702;28;19920;-83
2023/01/13 14:21:30;;;;;;;;;;;8.70;82.00;;;;;;5009146;28;19945;-81
2023/01/13 14:23:56;;;;;;;;;;;8.80;80.90;;;;;;5000210;28;19976;-84
2023/01/13 14:26:23;;;;;;;;;;;8.80;81.30;;;;;;5014279;28;19913;-83
2023/01/13 14:28:49;;;;;;;;;;;8.70;81.10;;;;;;5002091;28;19940;-83
2023/01/13 14:31:14;;;;;;;;;;;8.70;81.60;;;;;;5006878;28;19901;-79
2023/01/13 14:33:42;;;;;;;;;;;8.70;81.70;;;;;;5011684;28;19901;-80
2023/01/13 14:36:13;;;;;;;;;;;8.60;82.00;;;;;;5019828;28;20032;-81
2023/01/13 14:38:38;;;;;;;;;;;8.70;81.20;;;;;;5014993;28;20367;-81
2023/01/13 14:41:30;;;;;;;;;;;8.60;80.60;;;;;;4999174;28;20027;-81
2023/01/13 14:44:00;;;;;;;;;;;8.60;81.30;;;;;;4976246;28;20375;-81
2023/01/13 14:46:36;;;;;;;;;;;8.60;81.70;;;;;;4998155;28;20276;-82
2023/01/13 14:49:01;;;;;;;;;;;8.60;81.90;;;;;;4990501;28;19960;-80
2023/01/13 14:51:28;;;;;;;;;;;8.60;83.10;;;;;;5003585;28;19921;-79
2023/01/13 14:53:54;;;;;;;;;;;8.50;83.00;;;;;;5016138;28;19918;-78
2023/01/13 14:56:36;;;;;;;;;;;8.50;82.90;;;;;;4993885;28;19920;-80
2023/01/13 14:59:21;;;;;;;;;;;8.50;83.70;;;;;;4994631;28;19972;-80
2023/01/13 15:01:47;;;;;;;;;;;8.50;84.10;;;;;;4978972;28;19913;-78
2023/01/13 15:04:16;;;;;;;;;;;8.50;84.40;;;;;;5024836;28;19914;-80
2023/01/13 15:06:46;;;;;;;;;;;8.50;83.80;;;;;;5007445;28;19914;-80
2023/01/13 15:09:12;;;;;;;;;;;8.50;84.20;;;;;;5005244;28;19956;-79
2023/01/13 15:11:37;;;;;;;;;;;8.50;84.40;;;;;;5019692;28;19921;-79
2023/01/13 15:14:08;;;;;;;;;;;8.50;84.40;;;;;;4999479;28;19948;-83
2023/01/13 15:16:33;;;;;;;;;;;8.50;84.50;;;;;;4985992;28;20302;-82
2023/01/13 15:18:59;;;;;;;;;;;8.50;84.60;;;;;;4989400;28;19917;-81
2023/01/13 15:21:24;;;;;;;;;;;8.50;84.60;;;;;;4991707;28;19992;-80
2023/01/13 15:23:58;;;;;;;;;;;8.50;84.70;;;;;;5008601;28;20344;-85
2023/01/13 15:26:25;;;;;;;;;;;8.40;84.90;;;;;;4990143;28;19914;-86
2023/01/13 15:28:51;;;;;;;;;;;8.40;85.30;;;;;;4985901;28;19993;-86
2023/01/13 15:31:17;;;;;;;;;;;8.30;85.60;;;;;;5007907;28;19953;-83
2023/01/13 15:33:43;;;;;;;;;;;8.30;85.90;;;;;;5008799;28;20710;-84
2023/01/13 15:36:22;;;;;;;;;;;8.40;86.00;;;;;;5004718;28;19917;-85
2023/01/13 15:38:47;;;;;;;;;;;8.30;86.40;;;;;;5008637;28;20355;-82
2023/01/13 15:41:13;;;;;;;;;;;8.20;86.40;;;;;;5011779;28;19964;-84